Time;durP1;ratioP1;P1;durP2;ratioP2;P2;SDS_P1;SDS_P2;PMS_P1;PMS_P2;Temp;Humidity;BMP_temperature;BMP_pressure;BME280_temperature;BME280_humidity;BME280_pressure;Samples;Min_cycle;Max_cycle;Signal;HPM_P1;HPM_P2
2021/12/29 00:01:34;;;;;;;2.53;1.20;;;;;;;8.84;100.00;96854.09;5098715;28;20211;-73
2021/12/29 00:04:01;;;;;;;4.07;1.73;;;;;;;8.89;100.00;96859.81;5101094;28;20214;-73
2021/12/29 00:06:27;;;;;;;4.30;1.10;;;;;;;8.86;100.00;96867.97;5096427;28;20229;-73
2021/12/29 00:08:55;;;;;;;3.93;0.97;;;;;;;8.90;100.00;96864.13;5095324;28;20214;-73
2021/12/29 00:11:22;;;;;;;4.20;1.17;;;;;;;8.96;100.00;96863.63;5100520;28;20293;-72
2021/12/29 00:13:50;;;;;;;5.20;1.57;;;;;;;8.89;100.00;96867.72;5105927;28;20219;-72
2021/12/29 00:16:16;;;;;;;4.20;1.43;;;;;;;8.84;100.00;96877.81;5109029;28;20621;-73
2021/12/29 00:18:44;;;;;;;6.40;1.70;;;;;;;8.85;100.00;96869.78;5109287;28;20221;-73
2021/12/29 00:21:11;;;;;;;3.57;1.20;;;;;;;8.86;100.00;96878.50;5106622;28;20240;-73
2021/12/29 00:23:37;;;;;;;4.53;1.43;;;;;;;8.86;100.00;96873.22;5105458;28;20214;-73
2021/12/29 00:26:05;;;;;;;5.87;1.30;;;;;;;8.86;100.00;96889.03;5108797;28;20214;-73
2021/12/29 00:28:31;;;;;;;3.77;1.40;;;;;;;8.84;100.00;96885.69;5103162;28;20217;-72
2021/12/29 00:30:59;;;;;;;2.70;1.10;;;;;;;8.90;100.00;96901.00;5099775;28;20234;-73
2021/12/29 00:33:26;;;;;;;5.10;1.20;;;;;;;8.90;100.00;96895.75;5095792;28;20582;-73
2021/12/29 00:35:52;;;;;;;6.30;1.20;;;;;;;8.92;100.00;96909.63;5097056;28;20676;-73
2021/12/29 00:38:19;;;;;;;3.70;1.33;;;;;;;8.91;100.00;96908.78;5097065;28;20301;-74
2021/12/29 00:40:45;;;;;;;4.90;1.10;;;;;;;8.92;100.00;96917.53;5099152;28;20230;-73
2021/12/29 00:43:12;;;;;;;2.43;0.87;;;;;;;8.89;100.00;96917.78;5097972;28;20215;-73
2021/12/29 00:45:40;;;;;;;3.53;1.00;;;;;;;8.92;100.00;96928.91;5097291;28;20215;-72
2021/12/29 00:48:13;;;;;;;2.47;0.80;;;;;;;8.97;100.00;96934.66;5097274;28;20582;-73
2021/12/29 00:50:40;;;;;;;4.33;1.33;;;;;;;8.97;100.00;96950.47;5099306;28;20293;-73
2021/12/29 00:53:07;;;;;;;2.10;1.40;;;;;;;8.97;100.00;96960.16;5096881;28;20754;-73
2021/12/29 00:55:34;;;;;;;1.20;0.80;;;;;;;8.93;100.00;96959.56;5096711;28;20210;-73
2021/12/29 00:58:01;;;;;;;2.47;0.80;;;;;;;8.96;100.00;96958.47;5096385;28;20234;-73
2021/12/29 01:00:28;;;;;;;2.00;0.80;;;;;;;8.95;100.00;96959.44;5098112;28;20606;-73
2021/12/29 01:02:54;;;;;;;3.00;0.93;;;;;;;8.88;100.00;96956.44;5097321;28;20207;-72
2021/12/29 01:05:23;;;;;;;5.93;1.33;;;;;;;8.86;100.00;96974.19;5096957;28;20210;-73
2021/12/29 01:07:50;;;;;;;2.93;1.30;;;;;;;8.78;100.00;96970.50;5099956;28;20205;-72
2021/12/29 01:10:18;;;;;;;3.37;1.10;;;;;;;8.76;100.00;96983.78;5106123;28;20217;-73
2021/12/29 01:12:52;;;;;;;3.67;1.43;;;;;;;8.74;100.00;96984.88;5104318;28;20664;-73
2021/12/29 01:15:24;;;;;;;2.90;1.00;;;;;;;8.75;100.00;96994.47;5108264;28;20210;-72
2021/12/29 01:17:51;;;;;;;4.67;1.00;;;;;;;8.75;100.00;97010.28;5108394;28;20214;-73
2021/12/29 01:20:19;;;;;;;3.40;1.27;;;;;;;8.77;100.00;97010.97;5104393;28;20234;-73
2021/12/29 01:22:47;;;;;;;3.17;0.97;;;;;;;8.80;100.00;97016.00;5106090;28;20212;-73
2021/12/29 01:25:13;;;;;;;1.83;0.80;;;;;;;8.83;100.00;97027.16;5106563;28;20210;-73
2021/12/29 01:27:40;;;;;;;1.93;0.90;;;;;;;8.85;100.00;97034.91;5107888;28;20562;-73
2021/12/29 01:30:10;;;;;;;3.40;1.03;;;;;;;8.84;100.00;97027.97;5104443;28;20617;-72
2021/12/29 01:32:37;;;;;;;3.00;1.00;;;;;;;8.81;100.00;97029.03;5105837;28;20215;-73
2021/12/29 01:35:04;;;;;;;4.20;0.97;;;;;;;8.76;100.00;97040.91;5107506;28;20210;-73
2021/12/29 01:37:31;;;;;;;3.13;1.20;;;;;;;8.78;100.00;97028.44;5107700;28;20305;-72
2021/12/29 01:40:00;;;;;;;3.13;1.10;;;;;;;8.79;100.00;97030.13;5103783;28;20242;-73
2021/12/29 01:42:26;;;;;;;5.60;1.13;;;;;;;8.80;100.00;97042.34;5108106;28;20217;-73
2021/12/29 01:44:53;;;;;;;2.27;1.00;;;;;;;8.78;100.00;97049.53;5096578;28;20211;-73
2021/12/29 01:47:25;;;;;;;2.33;0.90;;;;;;;8.80;100.00;97058.13;5096659;28;20588;-72
2021/12/29 01:49:51;;;;;;;3.97;1.17;;;;;;;8.87;100.00;97060.19;5097926;28;20222;-73
2021/12/29 01:52:22;;;;;;;5.47;2.00;;;;;;;8.89;100.00;97073.22;5096509;28;20240;-72
2021/12/29 01:54:49;;;;;;;2.07;0.90;;;;;;;8.85;100.00;97077.91;5096185;28;20218;-73
2021/12/29 01:57:18;;;;;;;1.50;1.00;;;;;;;8.84;100.00;97080.66;5096444;28;20215;-72
2021/12/29 01:59:45;;;;;;;1.30;0.80;;;;;;;8.84;100.00;97091.19;5097598;28;20704;-72
2021/12/29 02:02:14;;;;;;;3.20;1.17;;;;;;;8.87;100.00;97096.25;5097306;28;20702;-73
2021/12/29 02:04:41;;;;;;;1.63;0.60;;;;;;;8.87;100.00;97101.50;5096188;28;20223;-73
2021/12/29 02:07:07;;;;;;;3.03;0.90;;;;;;;8.86;100.00;97110.34;5096149;28;20237;-72
2021/12/29 02:09:34;;;;;;;2.53;0.70;;;;;;;8.86;100.00;97115.63;5095494;28;20206;-72
2021/12/29 02:12:01;;;;;;;1.93;0.60;;;;;;;8.89;100.00;97120.66;5096056;28;20216;-73
2021/12/29 02:14:30;;;;;;;2.20;0.60;;;;;;;8.92;100.00;97115.13;5095819;28;20226;-72
2021/12/29 02:16:56;;;;;;;0.83;0.50;;;;;;;8.90;100.00;97122.31;5094192;28;20577;-73
2021/12/29 02:19:25;;;;;;;1.33;0.50;;;;;;;8.87;100.00;97119.94;5098228;28;20220;-73
2021/12/29 02:22:01;;;;;;;0.83;0.70;;;;;;;8.86;100.00;97121.72;5095946;28;20313;-73
2021/12/29 02:24:37;;;;;;;0.80;0.60;;;;;;;8.88;100.00;97129.53;5095929;28;20224;-73
2021/12/29 02:27:05;;;;;;;0.80;0.60;;;;;;;8.86;100.00;97147.22;5098333;28;20210;-73
2021/12/29 02:29:33;;;;;;;2.23;0.80;;;;;;;8.87;100.00;97151.56;5104089;28;20619;-72
2021/12/29 02:31:59;;;;;;;3.50;0.80;;;;;;;8.89;100.00;97162.81;5107344;28;20211;-73
2021/12/29 02:34:26;;;;;;;1.53;0.60;;;;;;;8.87;100.00;97155.03;5107048;28;20221;-73
2021/12/29 02:36:55;;;;;;;1.33;0.60;;;;;;;8.91;100.00;97160.88;5104302;28;20687;-73
2021/12/29 02:39:23;;;;;;;0.70;0.50;;;;;;;8.91;100.00;97163.53;5104369;28;20207;-73
2021/12/29 02:41:53;;;;;;;1.10;0.80;;;;;;;8.90;100.00;97169.75;5106941;28;20233;-72
2021/12/29 02:44:25;;;;;;;0.60;0.50;;;;;;;8.86;100.00;97181.47;5105442;28;20226;-73
2021/12/29 02:46:53;;;;;;;3.50;0.83;;;;;;;8.83;100.00;97179.09;5096835;28;20218;-72
2021/12/29 02:49:20;;;;;;;1.53;0.53;;;;;;;8.82;100.00;97187.97;5097459;28;20221;-72
2021/12/29 02:51:47;;;;;;;1.10;0.63;;;;;;;8.82;100.00;97194.06;5095985;28;20586;-73
2021/12/29 02:54:17;;;;;;;0.97;0.60;;;;;;;8.83;100.00;97198.38;5096256;28;20582;-73
2021/12/29 02:56:43;;;;;;;2.30;0.80;;;;;;;8.80;100.00;97203.03;5096913;28;20240;-73
2021/12/29 02:59:10;;;;;;;2.47;0.80;;;;;;;8.84;100.00;97204.47;5106853;28;20580;-72
2021/12/29 03:01:36;;;;;;;1.93;0.60;;;;;;;8.84;100.00;97193.94;5106835;28;20245;-73
2021/12/29 03:04:06;;;;;;;1.77;0.87;;;;;;;8.88;100.00;97205.94;5106827;28;20221;-72
2021/12/29 03:06:33;;;;;;;3.83;0.97;;;;;;;8.83;100.00;97211.56;5096945;28;20709;-72
2021/12/29 03:09:00;;;;;;;1.23;0.60;;;;;;;8.82;100.00;97219.59;5095052;28;20216;-73
2021/12/29 03:11:28;;;;;;;0.70;0.70;;;;;;;8.83;100.00;97219.47;5095086;28;20312;-73
2021/12/29 03:13:55;;;;;;;2.33;0.70;;;;;;;8.85;100.00;97221.97;5095093;28;20692;-73
2021/12/29 03:16:21;;;;;;;3.17;0.70;;;;;;;8.85;100.00;97224.59;5096314;28;20702;-72
2021/12/29 03:18:48;;;;;;;2.33;0.80;;;;;;;8.83;100.00;97242.31;5097673;28;20215;-73
2021/12/29 03:21:14;;;;;;;1.23;0.70;;;;;;;8.84;100.00;97233.47;5099392;28;20235;-73
2021/12/29 03:23:41;;;;;;;1.87;0.70;;;;;;;8.90;100.00;97233.00;5098884;28;20222;-73
2021/12/29 03:26:08;;;;;;;1.50;0.67;;;;;;;8.88;100.00;97225.19;5099779;28;20219;-73
2021/12/29 03:28:39;;;;;;;1.67;0.80;;;;;;;8.89;100.00;97215.50;5101605;28;20224;-73
2021/12/29 03:31:10;;;;;;;1.33;0.77;;;;;;;8.83;100.00;97215.97;5098857;28;20239;-73
2021/12/29 03:33:36;;;;;;;2.17;0.90;;;;;;;8.79;100.00;97215.38;5098982;28;20264;-73
2021/12/29 03:36:04;;;;;;;1.50;0.77;;;;;;;8.77;100.00;97221.72;5098671;28;20210;-73
2021/12/29 03:38:34;;;;;;;2.00;0.70;;;;;;;8.76;100.00;97226.13;5100543;28;20217;-73
2021/12/29 03:41:02;;;;;;;0.87;0.70;;;;;;;8.80;100.00;97227.59;5098873;28;20591;-73
2021/12/29 03:43:30;;;;;;;1.93;0.63;;;;;;;8.79;100.00;97230.34;5098905;28;20225;-73
2021/12/29 03:45:58;;;;;;;0.73;0.57;;;;;;;8.78;100.00;97226.88;5100419;28;20212;-73
2021/12/29 03:48:28;;;;;;;1.43;1.10;;;;;;;8.78;100.00;97229.50;5099619;28;20218;-73
2021/12/29 03:50:55;;;;;;;2.20;0.70;;;;;;;8.76;100.00;97230.59;5098503;28;20211;-73
2021/12/29 03:53:21;;;;;;;1.23;0.77;;;;;;;8.71;100.00;97224.81;5098504;28;20695;-73
2021/12/29 03:55:50;;;;;;;0.77;0.60;;;;;;;8.69;100.00;97232.00;5100439;28;20238;-73
2021/12/29 03:58:17;;;;;;;1.77;0.67;;;;;;;8.65;100.00;97217.38;5099361;28;20215;-73
2021/12/29 04:00:43;;;;;;;2.10;0.90;;;;;;;8.61;100.00;97227.31;5096961;28;20254;-72
2021/12/29 04:03:11;;;;;;;2.47;0.70;;;;;;;8.57;100.00;97240.84;5098698;28;20215;-72
2021/12/29 04:05:39;;;;;;;2.27;0.80;;;;;;;8.62;100.00;97243.97;5100153;28;20226;-73
2021/12/29 04:08:06;;;;;;;1.60;0.60;;;;;;;8.64;100.00;97245.50;5096719;28;20669;-73
2021/12/29 04:10:33;;;;;;;1.60;0.60;;;;;;;8.64;100.00;97237.59;5098021;28;20589;-71
2021/12/29 04:13:00;;;;;;;1.20;0.60;;;;;;;8.61;100.00;97252.78;5108900;28;20217;-70
2021/12/29 04:15:27;;;;;;;1.40;0.70;;;;;;;8.61;100.00;97250.16;5105298;28;20215;-70
2021/12/29 04:17:58;;;;;;;1.00;0.53;;;;;;;8.62;100.00;97259.78;5108125;28;20256;-70
2021/12/29 04:23:12;;;;;;;1.07;0.60;;;;;;;8.62;100.00;97265.84;5105723;28;20240;-71
2021/12/29 04:25:40;;;;;;;0.90;0.60;;;;;;;8.65;100.00;97288.50;5107111;28;20219;-73
2021/12/29 04:28:15;;;;;;;0.50;0.50;;;;;;;8.65;100.00;97293.75;5107564;28;20221;-71
2021/12/29 04:30:43;;;;;;;0.77;0.40;;;;;;;8.64;100.00;97300.00;5107484;28;20799;-71
2021/12/29 04:33:10;;;;;;;1.37;0.40;;;;;;;8.69;100.00;97309.22;5105123;28;20218;-71
2021/12/29 04:35:38;;;;;;;0.97;0.50;;;;;;;8.73;100.00;97307.19;5107945;28;20210;-71
2021/12/29 04:38:04;;;;;;;1.03;0.50;;;;;;;8.72;100.00;97300.25;5108930;28;20218;-70
2021/12/29 04:40:31;;;;;;;0.80;0.50;;;;;;;8.73;100.00;97296.66;5108417;28;20238;-73
2021/12/29 04:42:57;;;;;;;0.50;0.50;;;;;;;8.70;100.00;97300.34;5104916;28;20222;-71
2021/12/29 04:45:24;;;;;;;1.20;0.50;;;;;;;8.69;100.00;97303.94;5107133;28;20222;-71
2021/12/29 04:47:50;;;;;;;0.40;0.40;;;;;;;8.71;100.00;97314.38;5108697;28;20217;-72
2021/12/29 04:50:25;;;;;;;0.40;0.40;;;;;;;8.70;100.00;97315.34;5108731;28;20586;-71
2021/12/29 04:52:54;;;;;;;0.77;0.40;;;;;;;8.71;100.00;97322.28;5097922;28;20222;-71
2021/12/29 04:55:21;;;;;;;1.90;0.50;;;;;;;8.71;100.00;97327.56;5098183;28;20223;-71
2021/12/29 04:57:47;;;;;;;1.57;0.70;;;;;;;8.72;100.00;97326.59;5097265;28;20218;-72
2021/12/29 05:00:16;;;;;;;0.43;0.30;;;;;;;8.73;100.00;97330.91;5097271;28;20210;-72
2021/12/29 05:02:42;;;;;;;1.33;0.50;;;;;;;8.72;100.00;97331.84;5099382;28;20675;-72
2021/12/29 05:05:20;;;;;;;1.70;0.50;;;;;;;8.70;100.00;97331.16;5097839;28;20214;-72
2021/12/29 05:10:33;;;;;;;1.10;0.40;;;;;;;8.58;100.00;97342.59;5098865;28;20236;-71
2021/12/29 05:13:00;;;;;;;0.40;0.40;;;;;;;8.55;100.00;97346.28;5097947;28;20215;-71
2021/12/29 05:15:27;;;;;;;0.40;0.40;;;;;;;8.51;100.00;97357.16;5097019;28;20571;-71
2021/12/29 05:17:54;;;;;;;0.50;0.50;;;;;;;8.48;100.00;97357.38;5097025;28;20215;-71
2021/12/29 05:20:21;;;;;;;0.73;0.33;;;;;;;8.45;100.00;97362.88;5096919;28;20222;-71
2021/12/29 05:22:47;;;;;;;0.50;0.40;;;;;;;8.49;100.00;97365.16;5097816;28;20210;-71
2021/12/29 05:25:14;;;;;;;0.40;0.40;;;;;;;8.44;100.00;97350.66;5096892;28;20681;-71
2021/12/29 05:27:42;;;;;;;0.70;0.40;;;;;;;8.35;100.00;97354.81;5105985;28;20217;-73
2021/12/29 05:30:09;;;;;;;0.50;0.50;;;;;;;8.24;100.00;97359.16;5098450;28;20242;-71
2021/12/29 05:32:35;;;;;;;0.40;0.40;;;;;;;8.17;100.00;97363.13;5096240;28;20218;-68
2021/12/29 05:35:02;;;;;;;0.70;0.47;;;;;;;8.09;100.00;97360.22;5096595;28;20214;-68
2021/12/29 05:37:28;;;;;;;0.60;0.50;;;;;;;8.04;100.00;97367.59;5096172;28;20213;-68
2021/12/29 05:39:55;;;;;;;0.70;0.53;;;;;;;7.95;100.00;97374.34;5098695;28;20659;-67
2021/12/29 05:42:21;;;;;;;0.40;0.40;;;;;;;7.93;100.00;97375.41;5095885;28;20261;-67
2021/12/29 05:44:49;;;;;;;2.20;0.60;;;;;;;7.92;100.00;97376.38;5094321;28;20233;-67
2021/12/29 05:47:15;;;;;;;1.03;0.60;;;;;;;7.96;100.00;97389.19;5096078;28;20688;-66
2021/12/29 05:49:42;;;;;;;0.67;0.60;;;;;;;7.97;100.00;97397.94;5098698;28;20221;-68
2021/12/29 05:52:10;;;;;;;0.90;0.50;;;;;;;7.98;100.00;97391.72;5096220;28;20215;-67
2021/12/29 05:54:37;;;;;;;1.63;0.67;;;;;;;7.97;100.00;97400.56;5096375;28;20292;-67
2021/12/29 05:57:04;;;;;;;1.03;0.60;;;;;;;8.07;100.00;97405.06;5095936;28;20741;-67
2021/12/29 05:59:30;;;;;;;0.80;0.50;;;;;;;8.04;100.00;97394.78;5098848;28;20209;-67
2021/12/29 06:01:58;;;;;;;0.73;0.43;;;;;;;8.09;100.00;97403.16;5095920;28;20238;-67
2021/12/29 06:04:24;;;;;;;0.73;0.50;;;;;;;8.10;100.00;97409.28;5095672;28;20214;-67
2021/12/29 06:06:51;;;;;;;1.20;0.57;;;;;;;8.12;100.00;97417.88;5096032;28;20577;-67
2021/12/29 06:09:17;;;;;;;1.40;0.60;;;;;;;8.16;100.00;97424.63;5097652;28;20225;-67
2021/12/29 06:11:44;;;;;;;0.50;0.50;;;;;;;8.19;100.00;97424.41;5102212;28;20684;-67
2021/12/29 06:14:10;;;;;;;1.03;0.50;;;;;;;8.18;100.00;97423.56;5107116;28;20213;-67
2021/12/29 06:16:37;;;;;;;0.47;0.47;;;;;;;8.16;100.00;97419.38;5107358;28;20210;-67
2021/12/29 06:19:05;;;;;;;0.70;0.50;;;;;;;8.17;100.00;97421.03;5105034;28;20667;-68
2021/12/29 06:21:32;;;;;;;0.50;0.50;;;;;;;8.18;100.00;97412.19;5103691;28;20260;-67
2021/12/29 06:23:58;;;;;;;0.73;0.50;;;;;;;8.16;100.00;97422.84;5107099;28;20218;-67
2021/12/29 06:26:25;;;;;;;1.07;0.60;;;;;;;8.18;100.00;97425.34;5107322;28;20205;-67
2021/12/29 06:28:52;;;;;;;0.70;0.60;;;;;;;8.16;100.00;97427.25;5105474;28;20210;-67
2021/12/29 06:31:19;;;;;;;1.70;0.40;;;;;;;8.15;100.00;97423.78;5103560;28;20251;-67
2021/12/29 06:33:46;;;;;;;1.17;0.50;;;;;;;8.14;100.00;97421.28;5095755;28;20214;-67
2021/12/29 06:36:14;;;;;;;1.70;0.50;;;;;;;8.12;100.00;97418.75;5094500;28;20210;-67
2021/12/29 06:38:40;;;;;;;1.20;0.70;;;;;;;8.06;100.00;97413.06;5096757;28;20207;-67
2021/12/29 06:41:07;;;;;;;1.00;0.60;;;;;;;7.96;100.00;97422.56;5096605;28;20238;-68
2021/12/29 06:43:33;;;;;;;1.50;0.73;;;;;;;7.95;100.00;97421.72;5102302;28;20207;-68
2021/12/29 06:46:00;;;;;;;0.93;0.50;;;;;;;7.95;100.00;97423.53;5095624;28;20226;-67
2021/12/29 06:48:26;;;;;;;2.67;0.60;;;;;;;8.01;100.00;97425.69;5096680;28;20555;-67
2021/12/29 06:50:53;;;;;;;1.77;0.80;;;;;;;8.08;100.00;97426.97;5097083;28;20234;-67
2021/12/29 06:53:20;;;;;;;1.63;0.70;;;;;;;8.05;100.00;97432.44;5095260;28;20211;-68
2021/12/29 06:55:47;;;;;;;2.50;0.60;;;;;;;8.05;100.00;97435.06;5098641;28;20214;-67
2021/12/29 06:58:13;;;;;;;1.33;0.50;;;;;;;7.98;100.00;97444.34;5099792;28;20211;-67
2021/12/29 07:00:40;;;;;;;1.07;0.80;;;;;;;8.01;100.00;97450.22;5101233;28;20214;-67
2021/12/29 07:03:07;;;;;;;2.50;0.93;;;;;;;7.96;100.00;97448.88;5097511;28;20606;-67
2021/12/29 07:05:34;;;;;;;2.13;0.90;;;;;;;7.98;100.00;97462.75;5099288;28;20215;-67
2021/12/29 07:08:00;;;;;;;1.93;0.87;;;;;;;7.91;100.00;97469.41;5103251;28;20213;-67
2021/12/29 07:10:28;;;;;;;2.73;0.90;;;;;;;7.90;100.00;97478.25;5106789;28;20234;-67
2021/12/29 07:12:54;;;;;;;3.67;1.07;;;;;;;7.93;100.00;97476.25;5109233;28;20214;-67
2021/12/29 07:15:21;;;;;;;2.57;1.00;;;;;;;7.96;100.00;97480.47;5110605;28;20218;-67
2021/12/29 07:17:47;;;;;;;1.83;0.93;;;;;;;8.01;100.00;97494.09;5110327;28;20217;-67
2021/12/29 07:20:14;;;;;;;3.27;1.00;;;;;;;8.00;100.00;97497.69;5100239;28;20214;-66
2021/12/29 07:22:41;;;;;;;1.57;0.90;;;;;;;8.08;100.00;97495.41;5100906;28;20244;-66
2021/12/29 07:25:08;;;;;;;2.40;0.80;;;;;;;8.05;100.00;97506.13;5099297;28;20226;-67
2021/12/29 07:27:36;;;;;;;4.20;0.87;;;;;;;8.09;100.00;97507.59;5099046;28;20218;-67
2021/12/29 07:30:03;;;;;;;1.30;0.80;;;;;;;8.11;100.00;97511.81;5098407;28;20239;-68
2021/12/29 07:32:31;;;;;;;2.23;0.97;;;;;;;8.11;100.00;97500.44;5100966;28;20214;-66
2021/12/29 07:34:57;;;;;;;2.03;0.90;;;;;;;8.12;100.00;97510.84;5098791;28;20672;-67
2021/12/29 07:37:24;;;;;;;3.83;0.80;;;;;;;8.16;100.00;97514.97;5098995;28;20218;-66
2021/12/29 07:39:50;;;;;;;2.23;0.80;;;;;;;8.18;100.00;97517.47;5099334;28;20234;-66
2021/12/29 07:42:17;;;;;;;2.87;1.10;;;;;;;8.22;100.00;97527.75;5098728;28;20253;-66
2021/12/29 07:44:47;;;;;;;2.47;0.80;;;;;;;8.19;100.00;97533.19;5097009;28;20211;-67
2021/12/29 07:47:14;;;;;;;1.37;0.87;;;;;;;8.20;100.00;97532.25;5097179;28;20226;-66
2021/12/29 07:49:41;;;;;;;1.73;0.90;;;;;;;8.24;100.00;97544.25;5099526;28;20214;-67
2021/12/29 07:52:08;;;;;;;1.97;0.80;;;;;;;8.24;100.00;97546.03;5096753;28;20222;-66
2021/12/29 07:54:35;;;;;;;3.63;1.10;;;;;;;8.18;100.00;97543.78;5095680;28;20219;-67
2021/12/29 07:57:01;;;;;;;1.20;0.77;;;;;;;8.15;100.00;97544.03;5100488;28;20679;-66
2021/12/29 07:59:28;;;;;;;1.13;0.90;;;;;;;8.26;100.00;97554.69;5100459;28;20583;-66
2021/12/29 08:01:56;;;;;;;2.27;0.83;;;;;;;8.29;100.00;97562.38;5096794;28;20623;-68
2021/12/29 08:04:22;;;;;;;1.13;0.80;;;;;;;8.34;100.00;97553.19;5096578;28;20208;-66
2021/12/29 08:06:49;;;;;;;1.90;0.70;;;;;;;8.39;100.00;97566.06;5095426;28;20476;-66
2021/12/29 08:09:15;;;;;;;2.63;0.90;;;;;;;8.42;100.00;97560.56;5098264;28;20211;-69
2021/12/29 08:11:42;;;;;;;1.83;0.77;;;;;;;8.44;100.00;97558.69;5105036;28;20233;-67
2021/12/29 08:14:09;;;;;;;2.43;0.80;;;;;;;8.46;100.00;97565.50;5108135;28;20572;-67
2021/12/29 08:16:35;;;;;;;4.07;0.83;;;;;;;8.47;100.00;97563.72;5107696;28;20215;-67
2021/12/29 08:19:04;;;;;;;2.73;1.10;;;;;;;8.43;100.00;97554.34;5102536;28;20225;-68
2021/12/29 08:21:30;;;;;;;1.00;0.80;;;;;;;8.44;100.00;97562.16;5101639;28;20222;-67
2021/12/29 08:23:57;;;;;;;2.23;0.90;;;;;;;8.27;100.00;97569.53;5107030;28;20218;-68
2021/12/29 08:26:23;;;;;;;1.97;0.70;;;;;;;8.36;100.00;97567.09;5107937;28;20580;-68
2021/12/29 08:28:50;;;;;;;2.07;0.90;;;;;;;8.38;100.00;97572.28;5105835;28;20617;-68
2021/12/29 08:31:17;;;;;;;1.80;0.90;;;;;;;8.37;100.00;97573.19;5104060;28;20240;-68
2021/12/29 08:33:43;;;;;;;1.80;0.87;;;;;;;8.38;100.00;97580.19;5096171;28;20217;-68
2021/12/29 08:36:11;;;;;;;1.90;0.80;;;;;;;8.48;100.00;97576.78;5095928;28;20687;-68
2021/12/29 08:38:38;;;;;;;1.73;0.60;;;;;;;8.54;100.00;97567.59;5097800;28;20215;-69
2021/12/29 08:41:04;;;;;;;2.17;0.90;;;;;;;8.57;100.00;97567.41;5097089;28;20226;-68
2021/12/29 08:43:31;;;;;;;1.23;0.80;;;;;;;8.58;100.00;97563.81;5095885;28;20236;-70
2021/12/29 08:45:59;;;;;;;2.40;0.77;;;;;;;8.65;100.00;97559.81;5095854;28;20218;-69
2021/12/29 08:48:25;;;;;;;1.50;0.80;;;;;;;8.73;100.00;97565.34;5095640;28;20210;-70
2021/12/29 08:50:52;;;;;;;2.30;1.07;;;;;;;8.86;100.00;97568.81;5097058;28;20214;-71
2021/12/29 08:53:20;;;;;;;1.10;0.80;;;;;;;8.99;100.00;97574.91;5095771;28;20206;-69
2021/12/29 08:55:48;;;;;;;0.87;0.60;;;;;;;9.02;100.00;97569.41;5095546;28;20223;-69
2021/12/29 08:58:15;;;;;;;0.97;0.70;;;;;;;9.07;100.00;97573.38;5096825;28;20276;-69
2021/12/29 09:00:42;;;;;;;0.83;0.73;;;;;;;9.10;100.00;97582.88;5097024;28;20225;-69
2021/12/29 09:03:08;;;;;;;1.53;0.70;;;;;;;9.12;100.00;97580.97;5095433;28;20231;-72
2021/12/29 09:05:36;;;;;;;1.33;0.70;;;;;;;9.13;100.00;97577.38;5095320;28;20696;-70
2021/12/29 09:08:03;;;;;;;1.27;0.77;;;;;;;9.11;100.00;97579.31;5099158;28;20202;-70
2021/12/29 09:10:31;;;;;;;1.13;0.80;;;;;;;9.14;100.00;97579.06;5103180;28;20218;-70
2021/12/29 09:12:57;;;;;;;1.80;0.80;;;;;;;9.17;100.00;97584.13;5105938;28;20225;-70
2021/12/29 09:15:25;;;;;;;2.23;1.00;;;;;;;9.17;100.00;97576.22;5093916;28;20214;-70
2021/12/29 09:17:52;;;;;;;1.23;0.77;;;;;;;9.20;100.00;97589.16;5095816;28;20208;-70
2021/12/29 09:20:26;;;;;;;0.77;0.70;;;;;;;9.23;100.00;97588.97;5097228;28;20211;-69
2021/12/29 09:22:54;;;;;;;0.67;0.60;;;;;;;9.26;100.00;97586.09;5095211;28;20238;-71
2021/12/29 09:25:22;;;;;;;2.00;0.93;;;;;;;9.27;100.00;97593.91;5095398;28;20219;-70
2021/12/29 09:27:50;;;;;;;2.43;0.80;;;;;;;9.32;100.00;97594.41;5096945;28;20226;-71
2021/12/29 09:30:18;;;;;;;1.10;0.90;;;;;;;9.38;100.00;97582.56;5095603;28;20242;-72
2021/12/29 09:32:45;;;;;;;2.13;0.70;;;;;;;9.45;100.00;97603.13;5095411;28;20207;-73
2021/12/29 09:35:12;;;;;;;1.57;0.80;;;;;;;9.50;100.00;97595.72;5095140;28;20558;-71
2021/12/29 09:37:39;;;;;;;0.97;0.83;;;;;;;9.55;100.00;97605.91;5096947;28;20216;-75
2021/12/29 09:40:06;;;;;;;1.40;0.90;;;;;;;9.57;100.00;97617.19;5094013;28;20264;-73
2021/12/29 09:42:33;;;;;;;1.20;0.70;;;;;;;9.60;100.00;97622.25;5095024;28;20234;-73
2021/12/29 09:45:01;;;;;;;2.00;1.03;;;;;;;9.62;100.00;97622.97;5094565;28;20216;-73
2021/12/29 09:47:28;;;;;;;1.87;0.90;;;;;;;9.68;100.00;97620.72;5096574;28;20238;-74
2021/12/29 09:49:55;;;;;;;1.80;0.90;;;;;;;9.74;100.00;97622.06;5095822;28;20213;-73
2021/12/29 09:52:22;;;;;;;1.50;0.90;;;;;;;9.81;100.00;97615.38;5094472;28;20227;-75
2021/12/29 09:54:49;;;;;;;2.53;0.90;;;;;;;9.86;100.00;97615.88;5094807;28;20212;-75
2021/12/29 09:57:15;;;;;;;1.77;1.00;;;;;;;9.89;100.00;97620.91;5095964;28;20211;-75
2021/12/29 09:59:42;;;;;;;1.77;0.70;;;;;;;9.91;100.00;97625.13;5096111;28;20214;-73
2021/12/29 10:02:10;;;;;;;1.23;0.87;;;;;;;9.92;100.00;97628.63;5094672;28;20208;-76
2021/12/29 10:04:38;;;;;;;1.67;0.87;;;;;;;9.89;100.00;97631.47;5094615;28;20230;-76
2021/12/29 10:07:13;;;;;;;1.10;0.90;;;;;;;9.90;100.00;97630.56;5094119;28;20240;-75
2021/12/29 10:09:39;;;;;;;1.73;1.13;;;;;;;9.95;100.00;97625.75;5096236;28;20205;-74
2021/12/29 10:12:08;;;;;;;2.07;0.90;;;;;;;10.01;100.00;97620.00;5094778;28;20703;-73
2021/12/29 10:14:35;;;;;;;1.83;1.03;;;;;;;10.05;100.00;97617.09;5094964;28;20302;-75
2021/12/29 10:17:01;;;;;;;1.93;0.83;;;;;;;10.06;100.00;97617.91;5094930;28;20211;-74
2021/12/29 10:19:35;;;;;;;2.57;1.73;;;;;;;10.07;100.00;97609.03;5097835;28;20218;-76
2021/12/29 10:22:02;;;;;;;1.20;1.10;;;;;;;10.08;100.00;97615.97;5094820;28;20219;-75
2021/12/29 10:24:28;;;;;;;3.20;1.40;;;;;;;10.13;100.00;97614.69;5094893;28;20223;-75
2021/12/29 10:26:57;;;;;;;1.50;1.23;;;;;;;10.15;100.00;97601.38;5098649;28;20214;-75
2021/12/29 10:29:24;;;;;;;2.60;1.10;;;;;;;10.16;100.00;97603.88;5103984;28;20206;-75
2021/12/29 10:31:52;;;;;;;2.40;1.20;;;;;;;10.19;100.00;97603.66;5110173;28;20211;-75
2021/12/29 10:34:22;;;;;;;1.70;0.80;;;;;;;10.27;100.00;97601.28;5108447;28;20231;-75
2021/12/29 10:36:52;;;;;;;2.10;1.00;;;;;;;10.32;100.00;97587.72;5106967;28;20210;-74
2021/12/29 10:39:21;;;;;;;1.30;0.90;;;;;;;10.37;100.00;97586.41;5107769;28;20214;-74
2021/12/29 10:41:51;;;;;;;1.60;1.00;;;;;;;10.41;100.00;97587.84;5109834;28;20224;-74
2021/12/29 10:44:26;;;;;;;1.60;1.17;;;;;;;10.45;100.00;97588.47;5109640;28;20238;-75
2021/12/29 10:46:56;;;;;;;1.30;0.80;;;;;;;10.49;100.00;97584.63;5100986;28;20214;-75
2021/12/29 10:49:24;;;;;;;1.43;0.80;;;;;;;10.54;100.00;97590.41;5098921;28;20218;-75
2021/12/29 10:51:52;;;;;;;1.10;0.60;;;;;;;10.57;100.00;97582.22;5098646;28;20214;-75
2021/12/29 10:54:24;;;;;;;1.33;0.83;;;;;;;10.52;100.00;97594.97;5098363;28;20237;-75
2021/12/29 10:57:01;;;;;;;2.53;1.20;;;;;;;10.42;100.00;97583.41;5101849;28;20210;-74
2021/12/29 10:59:31;;;;;;;1.23;0.80;;;;;;;10.48;100.00;97589.09;5096853;28;20239;-75
2021/12/29 11:01:59;;;;;;;1.17;0.87;;;;;;;10.50;100.00;97591.59;5098438;28;20219;-75
2021/12/29 11:04:26;;;;;;;3.33;1.13;;;;;;;10.46;100.00;97600.72;5098924;28;20708;-75
2021/12/29 11:06:56;;;;;;;2.57;1.20;;;;;;;10.47;100.00;97591.84;5100026;28;20217;-75
2021/12/29 11:09:26;;;;;;;1.43;1.00;;;;;;;10.52;100.00;97590.50;5097559;28;20324;-75
2021/12/29 11:11:52;;;;;;;1.87;0.93;;;;;;;10.51;100.00;97593.28;5097827;28;20679;-75
2021/12/29 11:14:22;;;;;;;1.90;0.90;;;;;;;10.47;100.00;97600.56;5100189;28;20228;-75
2021/12/29 11:17:02;;;;;;;2.43;1.13;;;;;;;10.45;100.00;97593.75;5097761;28;20216;-75
2021/12/29 11:19:28;;;;;;;2.47;1.20;;;;;;;10.49;100.00;97595.19;5097590;28;20240;-75
2021/12/29 11:22:11;;;;;;;1.83;1.00;;;;;;;10.46;100.00;97584.88;5099580;28;20211;-74
2021/12/29 11:24:38;;;;;;;2.83;1.30;;;;;;;10.47;100.00;97586.56;5107157;28;20712;-75
2021/12/29 11:27:13;;;;;;;2.87;1.40;;;;;;;10.41;100.00;97585.19;5107469;28;20223;-75
2021/12/29 11:29:51;;;;;;;1.60;1.30;;;;;;;10.35;100.00;97584.84;5107449;28;20233;-75
2021/12/29 11:32:25;;;;;;;1.67;1.43;;;;;;;10.35;100.00;97577.75;5105590;28;20221;-75
2021/12/29 11:34:59;;;;;;;4.20;1.60;;;;;;;10.37;100.00;97565.28;5108801;28;21258;-75
2021/12/29 11:37:27;;;;;;;1.97;1.30;;;;;;;10.42;100.00;97572.84;5108404;28;20697;-75
2021/12/29 11:39:54;;;;;;;3.17;1.50;;;;;;;10.41;100.00;97571.16;5104892;28;20210;-75